createdAt,value
2022-10-26T00:00:28.585Z,10.13
2022-10-26T00:02:55.419Z,7.65
2022-10-26T00:05:22.350Z,6.57
2022-10-26T00:07:48.804Z,8.88
2022-10-26T00:10:15.236Z,12.00
2022-10-26T00:12:41.935Z,10.23
2022-10-26T00:15:08.652Z,8.43
2022-10-26T00:17:34.935Z,4.80
2022-10-26T00:20:02.279Z,8.35
2022-10-26T00:22:28.553Z,11.40
2022-10-26T00:24:54.865Z,11.52
2022-10-26T00:27:21.136Z,6.22
2022-10-26T00:29:47.397Z,8.98
2022-10-26T00:32:13.692Z,10.55
2022-10-26T00:34:40.079Z,7.60
2022-10-26T00:37:06.332Z,7.07
2022-10-26T00:39:32.639Z,9.98
2022-10-26T00:41:58.919Z,8.90
2022-10-26T00:44:43.511Z,11.70
2022-10-26T00:47:11.669Z,11.80
2022-10-26T00:49:38.275Z,11.50
2022-10-26T00:52:05.258Z,8.00
2022-10-26T00:54:31.605Z,9.05
2022-10-26T00:56:58.020Z,8.68
2022-10-26T00:59:24.325Z,9.15
2022-10-26T01:01:51.076Z,11.00
2022-10-26T01:04:18.308Z,11.98
2022-10-26T01:06:45.165Z,14.57
2022-10-26T01:09:12.335Z,6.25
2022-10-26T01:11:38.648Z,10.07
2022-10-26T01:14:07.048Z,9.38
2022-10-26T01:16:42.863Z,7.78
2022-10-26T01:19:12.361Z,12.50
2022-10-26T01:21:40.756Z,6.90
2022-10-26T01:24:14.206Z,7.28
2022-10-26T01:26:46.746Z,7.68
2022-10-26T01:29:19.241Z,7.82
2022-10-26T01:31:54.339Z,9.20
2022-10-26T01:34:29.761Z,11.95
2022-10-26T01:36:57.749Z,7.07
2022-10-26T01:39:29.335Z,10.57
2022-10-26T01:41:58.657Z,11.88
2022-10-26T01:44:28.501Z,9.10
2022-10-26T01:46:55.456Z,13.40
2022-10-26T01:49:23.108Z,13.70
2022-10-26T01:51:50.388Z,5.70
2022-10-26T01:54:16.881Z,14.50
2022-10-26T01:56:45.063Z,8.48
2022-10-26T01:59:14.444Z,9.50
2022-10-26T02:01:51.434Z,6.90
2022-10-26T02:04:26.827Z,13.57
2022-10-26T02:07:12.000Z,13.02
2022-10-26T02:09:54.722Z,12.55
2022-10-26T02:12:23.979Z,15.77
2022-10-26T02:14:54.536Z,12.23
2022-10-26T02:17:27.190Z,15.30
2022-10-26T02:19:56.232Z,9.63
2022-10-26T02:22:28.822Z,12.13
2022-10-26T02:24:56.319Z,10.10
2022-10-26T02:27:24.308Z,10.15
2022-10-26T02:29:51.978Z,11.52
2022-10-26T02:32:19.338Z,9.85
2022-10-26T02:34:47.030Z,4.70
2022-10-26T02:37:15.066Z,14.70
2022-10-26T02:39:41.647Z,13.63
2022-10-26T02:42:09.192Z,7.70
2022-10-26T02:44:43.248Z,11.73
2022-10-26T02:49:35.793Z,10.20
2022-10-26T02:52:04.539Z,11.43
2022-10-26T02:54:49.822Z,12.32
2022-10-26T02:57:19.218Z,10.27
2022-10-26T02:59:47.593Z,13.15
2022-10-26T03:02:15.953Z,18.67
2022-10-26T03:04:42.304Z,11.32
2022-10-26T03:07:08.704Z,10.07
2022-10-26T03:09:34.997Z,11.60
2022-10-26T03:12:01.259Z,14.70
2022-10-26T03:14:27.549Z,9.95
2022-10-26T03:16:53.902Z,10.00
2022-10-26T03:19:20.245Z,8.77
2022-10-26T03:21:46.516Z,8.65
2022-10-26T03:24:12.883Z,10.77
2022-10-26T03:26:39.162Z,8.93
2022-10-26T03:29:05.560Z,12.82
2022-10-26T03:31:31.844Z,11.68
2022-10-26T03:33:58.200Z,14.25
2022-10-26T03:36:24.500Z,15.13
2022-10-26T03:38:50.749Z,11.25
2022-10-26T03:41:17.008Z,8.95
2022-10-26T03:43:43.283Z,15.73
2022-10-26T03:46:09.556Z,12.07
2022-10-26T03:48:35.840Z,11.80
2022-10-26T03:51:02.133Z,12.68
2022-10-26T03:53:28.434Z,13.18
2022-10-26T03:55:54.729Z,15.75
2022-10-26T03:58:21.156Z,8.18
2022-10-26T04:00:47.788Z,7.97
2022-10-26T04:03:14.065Z,11.32
2022-10-26T04:05:40.344Z,10.38
2022-10-26T04:08:06.654Z,11.60
2022-10-26T04:10:32.941Z,11.75
2022-10-26T04:13:01.070Z,10.75
2022-10-26T04:15:27.917Z,11.13
2022-10-26T04:17:57.981Z,13.30
2022-10-26T04:20:24.458Z,12.02
2022-10-26T04:23:01.164Z,10.30
2022-10-26T04:25:30.176Z,12.13
2022-10-26T04:27:59.456Z,14.38
2022-10-26T04:30:26.194Z,8.38
2022-10-26T04:32:52.492Z,11.32
2022-10-26T04:35:18.797Z,15.52
2022-10-26T04:37:45.085Z,13.48
2022-10-26T04:40:11.413Z,14.57
2022-10-26T04:42:44.431Z,12.38
2022-10-26T04:45:11.513Z,12.70
2022-10-26T04:47:37.825Z,12.60
2022-10-26T04:50:04.512Z,16.55
2022-10-26T04:52:30.802Z,12.32
2022-10-26T04:54:57.055Z,10.90
2022-10-26T04:57:23.361Z,9.85
2022-10-26T04:59:49.658Z,13.70
2022-10-26T05:02:16.078Z,8.77
2022-10-26T05:04:42.377Z,18.35
2022-10-26T05:07:08.674Z,11.48
2022-10-26T05:09:34.942Z,13.73
2022-10-26T05:12:01.204Z,11.20
2022-10-26T05:14:27.493Z,12.95
2022-10-26T05:16:55.763Z,11.85
2022-10-26T05:19:22.026Z,10.40
2022-10-26T05:21:48.375Z,13.52
2022-10-26T05:24:14.656Z,13.10
2022-10-26T05:26:40.925Z,10.23
2022-10-26T05:29:08.019Z,16.45
2022-10-26T05:31:34.297Z,11.55
2022-10-26T05:34:00.593Z,10.00
2022-10-26T05:36:26.869Z,15.65
2022-10-26T05:38:53.149Z,16.63
2022-10-26T05:41:21.045Z,9.77
2022-10-26T05:43:47.758Z,13.52
2022-10-26T05:46:14.034Z,13.65
2022-10-26T05:48:40.320Z,12.30
2022-10-26T05:51:06.634Z,12.25
2022-10-26T05:53:32.875Z,13.10
2022-10-26T05:55:59.353Z,6.72
2022-10-26T05:58:25.768Z,14.90
2022-10-26T06:01:11.769Z,15.20
2022-10-26T06:03:45.530Z,10.73
2022-10-26T06:06:12.905Z,19.10
2022-10-26T06:08:39.334Z,11.35
2022-10-26T06:11:07.001Z,13.00
2022-10-26T06:13:33.481Z,14.63
2022-10-26T06:16:06.216Z,12.60
2022-10-26T06:18:38.647Z,18.67
2022-10-26T06:21:10.728Z,11.00
2022-10-26T06:23:40.105Z,10.30
2022-10-26T06:26:09.492Z,13.07
2022-10-26T06:29:02.857Z,12.35
2022-10-26T06:31:29.221Z,13.73
2022-10-26T06:33:58.539Z,13.73
2022-10-26T06:36:26.939Z,11.82
2022-10-26T06:39:04.226Z,13.95
2022-10-26T06:41:32.062Z,11.23
2022-10-26T06:43:58.472Z,13.60
2022-10-26T06:46:24.762Z,13.05
2022-10-26T06:49:09.675Z,14.35
2022-10-26T06:51:42.984Z,11.75
2022-10-26T06:54:23.016Z,14.10
2022-10-26T06:56:51.606Z,8.27
2022-10-26T06:59:23.926Z,14.48
2022-10-26T07:01:50.441Z,11.60
2022-10-26T07:04:16.770Z,16.85
2022-10-26T07:06:43.047Z,14.55
2022-10-26T07:09:09.350Z,18.20
2022-10-26T07:11:35.618Z,11.38
2022-10-26T07:14:01.877Z,15.20
2022-10-26T07:16:28.967Z,12.57
2022-10-26T07:18:56.316Z,8.88
2022-10-26T07:21:22.674Z,12.30
2022-10-26T07:23:48.947Z,10.90
2022-10-26T07:26:15.229Z,13.45
2022-10-26T07:28:41.540Z,12.57
2022-10-26T07:31:07.860Z,12.60
2022-10-26T07:33:36.863Z,11.75
2022-10-26T07:36:08.493Z,9.05
2022-10-26T07:38:34.773Z,8.32
2022-10-26T07:41:01.669Z,12.05
2022-10-26T07:43:27.949Z,10.50
2022-10-26T07:45:54.241Z,9.98
2022-10-26T07:48:20.554Z,13.93
2022-10-26T07:50:46.901Z,11.15
2022-10-26T07:53:13.278Z,9.00
2022-10-26T07:55:39.570Z,5.13
2022-10-26T07:58:05.866Z,13.32
2022-10-26T08:00:32.312Z,7.97
2022-10-26T08:02:58.678Z,9.13
2022-10-26T08:05:25.650Z,11.55
2022-10-26T08:07:52.347Z,5.97
2022-10-26T08:10:18.919Z,7.55
2022-10-26T08:12:45.268Z,7.05
2022-10-26T08:15:11.558Z,13.02
2022-10-26T08:17:37.884Z,5.50
2022-10-26T08:20:04.383Z,15.35
2022-10-26T08:22:30.835Z,7.93
2022-10-26T08:24:57.303Z,12.07
2022-10-26T08:27:23.581Z,9.55
2022-10-26T08:29:49.850Z,11.45
2022-10-26T08:32:16.113Z,9.50
2022-10-26T08:34:42.369Z,6.72
2022-10-26T08:37:08.645Z,11.75
2022-10-26T08:39:34.957Z,8.60
2022-10-26T08:42:04.121Z,8.52
2022-10-26T08:44:39.183Z,12.15
2022-10-26T08:47:11.409Z,7.35
2022-10-26T08:49:48.313Z,15.32
2022-10-26T08:52:17.214Z,9.40
2022-10-26T08:54:50.468Z,9.32
2022-10-26T08:57:21.776Z,11.33
2022-10-26T08:59:55.821Z,10.52
2022-10-26T09:04:48.436Z,12.30
2022-10-26T09:07:17.730Z,11.32
2022-10-26T09:09:48.353Z,12.90
2022-10-26T09:12:17.695Z,11.25
2022-10-26T09:14:57.741Z,9.93
2022-10-26T09:17:24.000Z,13.55
2022-10-26T09:20:05.423Z,13.80
2022-10-26T09:22:48.962Z,6.18
2022-10-26T09:25:22.721Z,10.88
2022-10-26T09:27:55.356Z,10.75
2022-10-26T09:30:22.285Z,12.70
2022-10-26T09:32:59.480Z,8.90
2022-10-26T09:35:27.790Z,8.30
2022-10-26T09:38:01.024Z,11.75
2022-10-26T09:40:40.527Z,4.95
2022-10-26T09:43:12.868Z,7.90
2022-10-26T09:45:42.032Z,7.18
2022-10-26T09:48:14.661Z,7.95
2022-10-26T09:50:43.153Z,9.15
2022-10-26T09:53:09.834Z,7.43
2022-10-26T09:55:41.162Z,7.38
2022-10-26T09:58:10.940Z,7.20
2022-10-26T10:00:37.794Z,8.20
2022-10-26T10:03:16.865Z,8.73
2022-10-26T10:05:51.257Z,7.97
2022-10-26T10:08:25.123Z,6.47
2022-10-26T10:10:59.520Z,10.37
2022-10-26T10:13:30.349Z,7.05
2022-10-26T10:16:08.071Z,6.60
2022-10-26T10:18:35.181Z,7.13
2022-10-26T10:21:01.941Z,9.98
2022-10-26T10:23:31.340Z,11.18
2022-10-26T10:25:58.529Z,9.95
2022-10-26T10:28:26.140Z,9.48
2022-10-26T10:31:03.321Z,7.85
2022-10-26T10:33:34.619Z,8.25
2022-10-26T10:36:01.237Z,8.95
2022-10-26T10:38:27.621Z,7.85
2022-10-26T10:40:56.458Z,10.02
2022-10-26T10:43:22.836Z,10.52
2022-10-26T10:45:52.808Z,7.30
2022-10-26T10:48:22.913Z,9.80
2022-10-26T10:50:56.641Z,15.98
2022-10-26T10:53:34.848Z,9.65
2022-10-26T10:56:10.635Z,8.18
2022-10-26T10:58:37.954Z,8.23
2022-10-26T11:01:04.606Z,8.43
2022-10-26T11:03:49.933Z,7.15
2022-10-26T11:06:17.516Z,6.80
2022-10-26T11:08:46.876Z,11.10
2022-10-26T11:11:16.213Z,8.88
2022-10-26T11:13:51.276Z,9.07
2022-10-26T11:16:24.354Z,10.35
2022-10-26T11:18:54.005Z,10.65
2022-10-26T11:21:28.116Z,13.07
2022-10-26T11:23:58.601Z,16.38
2022-10-26T11:26:29.842Z,11.35
2022-10-26T11:29:05.663Z,11.30
2022-10-26T11:31:37.709Z,11.50
2022-10-26T11:34:19.304Z,13.27
2022-10-26T11:36:48.443Z,10.60
2022-10-26T11:39:20.317Z,9.68
2022-10-26T11:41:51.866Z,11.70
2022-10-26T11:44:18.767Z,10.70
2022-10-26T11:46:47.672Z,10.00
2022-10-26T11:49:14.407Z,8.70
2022-10-26T11:51:44.043Z,9.85
2022-10-26T11:54:30.664Z,12.40
2022-10-26T11:56:57.890Z,12.90
2022-10-26T11:59:27.939Z,8.10
2022-10-26T12:02:00.552Z,7.05
2022-10-26T12:04:29.425Z,9.20
2022-10-26T12:06:56.303Z,13.68
2022-10-26T12:09:35.571Z,9.88
2022-10-26T12:12:06.590Z,12.15
2022-10-26T12:14:49.388Z,13.38
2022-10-26T12:17:36.901Z,7.80
2022-10-26T12:20:21.776Z,12.43
2022-10-26T12:22:48.558Z,9.10
2022-10-26T12:25:15.550Z,12.95
2022-10-26T12:27:42.002Z,10.43
2022-10-26T12:30:14.628Z,8.70
2022-10-26T12:32:43.676Z,9.73
2022-10-26T12:35:29.152Z,8.90
2022-10-26T12:37:55.499Z,6.80
2022-10-26T12:40:30.853Z,9.38
2022-10-26T12:42:57.769Z,9.32
2022-10-26T12:45:24.712Z,11.13
2022-10-26T12:47:51.316Z,7.60
2022-10-26T12:50:24.230Z,8.38
2022-10-26T12:52:58.382Z,14.80
2022-10-26T12:55:43.632Z,9.38
2022-10-26T12:58:28.777Z,7.03
2022-10-26T13:01:10.854Z,9.07
2022-10-26T13:03:55.930Z,7.10
2022-10-26T13:06:25.301Z,7.07
2022-10-26T13:08:58.629Z,6.13
2022-10-26T13:11:31.168Z,7.95
2022-10-26T13:13:59.786Z,7.70
2022-10-26T13:16:26.936Z,5.68
2022-10-26T13:18:53.386Z,10.27
2022-10-26T13:21:20.633Z,7.18
2022-10-26T13:23:48.196Z,8.10
2022-10-26T13:26:19.216Z,10.82
2022-10-26T13:28:57.034Z,11.93
2022-10-26T13:31:32.651Z,6.93
2022-10-26T13:34:00.647Z,10.40
2022-10-26T13:36:36.386Z,10.95
2022-10-26T13:39:06.129Z,10.95
2022-10-26T13:41:34.067Z,9.43
2022-10-26T13:44:03.818Z,13.10
2022-10-26T13:46:32.030Z,9.27
2022-10-26T13:49:00.445Z,8.90
2022-10-26T13:51:35.030Z,7.63
2022-10-26T13:54:10.632Z,6.70
2022-10-26T13:56:39.900Z,7.53
2022-10-26T13:59:10.435Z,8.57
2022-10-26T14:01:36.851Z,6.00
2022-10-26T14:04:16.772Z,8.50
2022-10-26T14:06:46.303Z,7.13
2022-10-26T14:09:14.479Z,6.78
2022-10-26T14:11:49.150Z,7.03
2022-10-26T14:14:18.892Z,5.72
2022-10-26T14:16:46.501Z,7.88
2022-10-26T14:19:25.815Z,10.43
2022-10-26T14:21:53.102Z,8.52
2022-10-26T14:24:45.632Z,6.80
2022-10-26T14:27:20.707Z,6.25
2022-10-26T14:29:54.169Z,7.97
2022-10-26T14:32:36.951Z,8.95
2022-10-26T14:35:03.397Z,8.95
2022-10-26T14:37:43.264Z,6.97
2022-10-26T14:40:29.825Z,8.27
2022-10-26T14:42:57.564Z,6.97
2022-10-26T14:45:50.307Z,7.10
2022-10-26T14:48:24.964Z,7.35
2022-10-26T14:50:59.003Z,10.60
2022-10-26T14:55:52.291Z,7.28
2022-10-26T15:01:13.474Z,8.20
2022-10-26T15:03:41.198Z,7.03
2022-10-26T15:06:26.680Z,8.85
2022-10-26T15:08:57.355Z,10.52
2022-10-26T15:11:24.219Z,7.82
2022-10-26T15:13:51.044Z,8.18
2022-10-26T15:16:19.810Z,5.50
2022-10-26T15:18:47.485Z,13.80
2022-10-26T15:21:23.326Z,8.35
2022-10-26T15:23:50.684Z,9.88
2022-10-26T15:26:17.556Z,11.45
2022-10-26T15:28:44.133Z,8.73
2022-10-26T15:31:12.463Z,15.73
2022-10-26T15:33:40.987Z,9.35
2022-10-26T15:36:18.098Z,9.15
2022-10-26T15:38:44.986Z,10.32
2022-10-26T15:41:16.432Z,10.05
2022-10-26T15:43:42.923Z,9.98
2022-10-26T15:46:09.273Z,8.52
2022-10-26T15:48:36.099Z,11.90
2022-10-26T15:51:02.481Z,8.52
2022-10-26T15:53:28.879Z,13.80
2022-10-26T15:55:56.320Z,9.02
2022-10-26T15:58:22.926Z,9.27
2022-10-26T16:00:49.509Z,11.23
2022-10-26T16:03:17.513Z,9.45
2022-10-26T16:05:44.420Z,11.50
2022-10-26T16:08:17.966Z,9.73
2022-10-26T16:10:45.406Z,11.35
2022-10-26T16:13:15.309Z,11.80
2022-10-26T16:15:41.657Z,9.98
2022-10-26T16:18:08.160Z,14.45
2022-10-26T16:20:34.446Z,9.43
2022-10-26T16:23:06.437Z,13.95
2022-10-26T16:25:40.745Z,11.50
2022-10-26T16:28:07.038Z,13.32
2022-10-26T16:30:33.365Z,13.70
2022-10-26T16:32:59.682Z,15.98
2022-10-26T16:35:26.018Z,19.88
2022-10-26T16:37:52.349Z,13.25
2022-10-26T16:40:18.685Z,13.82
2022-10-26T16:42:45.098Z,13.35
2022-10-26T16:45:11.645Z,18.02
2022-10-26T16:47:39.958Z,17.38
2022-10-26T16:50:07.058Z,16.05
2022-10-26T16:52:33.958Z,19.85
2022-10-26T16:55:00.219Z,18.25
2022-10-26T16:57:26.657Z,21.65
2022-10-26T16:59:52.936Z,16.58
2022-10-26T17:02:19.593Z,12.15
2022-10-26T17:04:46.154Z,17.40
2022-10-26T17:07:12.497Z,13.95
2022-10-26T17:09:38.789Z,12.77
2022-10-26T17:12:05.384Z,18.02
2022-10-26T17:14:32.644Z,24.33
2022-10-26T17:16:59.018Z,15.15
2022-10-26T17:19:25.339Z,12.38
2022-10-26T17:21:51.609Z,10.90
2022-10-26T17:24:18.876Z,13.38
2022-10-26T17:26:45.141Z,17.20
2022-10-26T17:29:12.531Z,19.73
2022-10-26T17:31:39.189Z,20.25
2022-10-26T17:34:05.614Z,19.10
2022-10-26T17:36:31.985Z,13.80
2022-10-26T17:39:00.687Z,13.45
2022-10-26T17:41:27.232Z,13.95
2022-10-26T17:43:53.738Z,18.45
2022-10-26T17:46:22.736Z,11.57
2022-10-26T17:48:49.059Z,12.18
2022-10-26T17:51:19.203Z,15.50
2022-10-26T17:53:52.145Z,23.20
2022-10-26T17:56:19.950Z,9.05
2022-10-26T17:58:50.584Z,18.50
2022-10-26T18:01:16.941Z,17.60
2022-10-26T18:03:43.316Z,14.88
2022-10-26T18:06:09.726Z,14.73
2022-10-26T18:08:39.160Z,14.55
2022-10-26T18:11:06.518Z,20.00
2022-10-26T18:13:34.208Z,20.17
2022-10-26T18:16:08.236Z,19.05
2022-10-26T18:21:04.764Z,25.02
2022-10-26T18:23:31.044Z,19.88
2022-10-26T18:26:11.110Z,14.82
2022-10-26T18:28:39.684Z,15.98
2022-10-26T18:31:06.945Z,15.15
2022-10-26T18:33:33.565Z,18.23
2022-10-26T18:36:06.329Z,13.68
2022-10-26T18:38:32.803Z,18.40
2022-10-26T18:40:59.493Z,21.52
2022-10-26T18:43:26.439Z,16.67
2022-10-26T18:45:53.869Z,18.88
2022-10-26T18:48:20.195Z,16.00
2022-10-26T18:50:46.593Z,19.40
2022-10-26T18:53:14.073Z,20.58
2022-10-26T18:55:41.164Z,15.65
2022-10-26T18:58:10.641Z,14.50
2022-10-26T19:00:38.008Z,17.17
2022-10-26T19:03:06.342Z,21.40
2022-10-26T19:05:35.071Z,18.33
2022-10-26T19:08:01.346Z,17.25
2022-10-26T19:10:27.666Z,15.88
2022-10-26T19:12:54.402Z,15.60
2022-10-26T19:15:20.743Z,15.65
2022-10-26T19:17:47.059Z,14.25
2022-10-26T19:20:13.396Z,15.50
2022-10-26T19:22:39.770Z,20.92
2022-10-26T19:25:06.305Z,15.90
2022-10-26T19:27:32.637Z,22.15
2022-10-26T19:29:59.482Z,18.98
2022-10-26T19:32:28.803Z,18.17
2022-10-26T19:34:55.161Z,12.77
2022-10-26T19:37:23.663Z,13.25
2022-10-26T19:39:52.311Z,17.98
2022-10-26T19:42:18.650Z,17.33
2022-10-26T19:44:45.045Z,19.08
2022-10-26T19:47:11.318Z,14.73
2022-10-26T19:49:37.727Z,22.13
2022-10-26T19:52:04.154Z,16.67
2022-10-26T19:54:30.615Z,19.45
2022-10-26T19:56:56.955Z,22.45
2022-10-26T19:59:23.253Z,18.83
2022-10-26T20:01:49.549Z,19.70
2022-10-26T20:04:15.949Z,15.32
2022-10-26T20:06:42.240Z,17.50
2022-10-26T20:09:08.665Z,19.00
2022-10-26T20:11:37.928Z,17.17
2022-10-26T20:14:06.253Z,17.02
2022-10-26T20:16:32.584Z,14.85
2022-10-26T20:19:00.764Z,12.98
2022-10-26T20:21:27.277Z,13.77
2022-10-26T20:23:53.572Z,15.25
2022-10-26T20:26:20.927Z,17.88
2022-10-26T20:28:49.926Z,15.43
2022-10-26T20:31:17.089Z,13.07
2022-10-26T20:33:43.366Z,13.05
2022-10-26T20:36:09.774Z,15.75
2022-10-26T20:38:36.257Z,12.43
2022-10-26T20:41:06.189Z,15.25
2022-10-26T20:43:38.205Z,17.60
2022-10-26T20:46:04.587Z,11.52
2022-10-26T20:48:30.984Z,13.98
2022-10-26T20:51:02.758Z,17.88
2022-10-26T20:53:33.764Z,18.65
2022-10-26T20:56:01.634Z,19.77
2022-10-26T20:58:28.031Z,16.20
2022-10-26T21:01:05.788Z,23.67
2022-10-26T21:03:32.227Z,17.65
2022-10-26T21:05:58.518Z,17.20
2022-10-26T21:08:24.810Z,12.18
2022-10-26T21:10:51.333Z,14.77
2022-10-26T21:13:17.685Z,13.10
2022-10-26T21:15:44.212Z,16.33
2022-10-26T21:18:10.577Z,17.45
2022-10-26T21:20:36.849Z,14.07
2022-10-26T21:23:03.089Z,14.13
2022-10-26T21:25:29.709Z,13.90
2022-10-26T21:27:56.745Z,18.27
2022-10-26T21:30:26.140Z,17.40
2022-10-26T21:32:53.488Z,15.48
2022-10-26T21:35:19.918Z,13.02
2022-10-26T21:37:46.204Z,14.68
2022-10-26T21:40:12.984Z,15.70
2022-10-26T21:42:39.571Z,19.13
2022-10-26T21:45:06.481Z,19.05
2022-10-26T21:47:32.770Z,19.50
2022-10-26T21:49:59.060Z,17.23
2022-10-26T21:52:25.350Z,14.07
2022-10-26T21:54:51.618Z,23.48
2022-10-26T21:57:17.884Z,17.67
2022-10-26T21:59:44.188Z,18.80
2022-10-26T22:02:10.470Z,15.93
2022-10-26T22:04:37.252Z,20.88
2022-10-26T22:07:03.517Z,15.98
2022-10-26T22:09:29.778Z,18.92
2022-10-26T22:11:56.056Z,18.60
2022-10-26T22:14:22.377Z,21.10
2022-10-26T22:16:48.641Z,16.90
2022-10-26T22:19:14.926Z,19.10
2022-10-26T22:21:41.711Z,14.20
2022-10-26T22:24:08.486Z,10.52
2022-10-26T22:26:35.841Z,18.15
2022-10-26T22:29:02.693Z,12.10
2022-10-26T22:34:01.924Z,12.13
2022-10-26T22:36:31.501Z,13.82
2022-10-26T22:38:57.864Z,16.73
2022-10-26T22:41:24.419Z,13.90
2022-10-26T22:43:51.000Z,17.25
2022-10-26T22:46:21.302Z,15.02
2022-10-26T22:48:47.918Z,13.27
2022-10-26T22:51:15.438Z,15.55
2022-10-26T22:53:41.889Z,15.60
2022-10-26T22:56:09.105Z,15.00
2022-10-26T22:58:35.787Z,15.75
2022-10-26T23:01:03.585Z,18.15
2022-10-26T23:03:29.951Z,15.57
2022-10-26T23:05:57.280Z,15.02
2022-10-26T23:08:24.040Z,14.15
2022-10-26T23:10:50.335Z,11.60
2022-10-26T23:13:16.632Z,10.23
2022-10-26T23:15:42.896Z,22.90
2022-10-26T23:18:09.205Z,17.73
2022-10-26T23:20:35.476Z,16.48
2022-10-26T23:23:01.881Z,12.43
2022-10-26T23:25:28.429Z,19.92
2022-10-26T23:27:54.725Z,16.35
2022-10-26T23:30:21.047Z,13.45
2022-10-26T23:32:47.382Z,13.48
2022-10-26T23:35:13.775Z,11.98
2022-10-26T23:37:40.047Z,19.92
2022-10-26T23:40:06.682Z,12.85
2022-10-26T23:42:32.974Z,13.93
2022-10-26T23:44:59.248Z,12.02
2022-10-26T23:47:25.529Z,16.73
2022-10-26T23:49:52.362Z,11.88
2022-10-26T23:52:18.641Z,13.20
2022-10-26T23:54:44.956Z,14.70
2022-10-26T23:57:11.272Z,14.10
2022-10-26T23:59:37.545Z,18.13
